createdAt,value
2016-05-28T00:00:33.391Z,1001.29
2016-05-28T00:01:33.441Z,1001.26
2016-05-28T00:02:33.476Z,1001.29
2016-05-28T00:03:33.525Z,1001.25
2016-05-28T00:04:33.559Z,1001.27
2016-05-28T00:05:33.593Z,1001.27
2016-05-28T00:06:33.643Z,1001.26
2016-05-28T00:07:33.676Z,1001.27
2016-05-28T00:08:33.727Z,1001.29
2016-05-28T00:09:33.760Z,1001.25
2016-05-28T00:10:33.856Z,1001.28
2016-05-28T00:11:33.844Z,1001.28
2016-05-28T00:12:33.893Z,1001.34
2016-05-28T00:13:33.927Z,1001.36
2016-05-28T00:14:33.993Z,1001.41
2016-05-28T00:15:34.011Z,1001.39
2016-05-28T00:16:34.045Z,1001.42
2016-05-28T00:17:34.094Z,1001.47
2016-05-28T00:18:34.128Z,1001.46
2016-05-28T00:19:34.178Z,1001.5
2016-05-28T00:20:34.212Z,1001.48
2016-05-28T00:21:34.308Z,1001.48
2016-05-28T00:22:34.295Z,1001.48
2016-05-28T00:23:34.329Z,1001.47
2016-05-28T00:24:34.379Z,1001.37
2016-05-28T00:25:34.413Z,1001.38
2016-05-28T00:26:34.461Z,1001.34
2016-05-28T00:27:34.497Z,1001.34
2016-05-28T00:28:34.546Z,1001.34
2016-05-28T00:29:34.580Z,1001.28
2016-05-28T00:30:34.614Z,1001.29
2016-05-28T00:31:34.663Z,1001.26
2016-05-28T00:32:34.697Z,1001.26
2016-05-28T00:33:34.747Z,1001.2
2016-05-28T00:34:34.780Z,1001.25
2016-05-28T00:35:34.830Z,1001.21
2016-05-28T00:36:34.864Z,1001.22
2016-05-28T00:37:34.899Z,1001.21
2016-05-28T00:38:34.948Z,1001.21
2016-05-28T00:39:34.982Z,1001.2
2016-05-28T00:40:35.031Z,1001.24
2016-05-28T00:41:35.065Z,1001.27
2016-05-28T00:42:35.115Z,1001.25
2016-05-28T00:43:35.165Z,1001.27
2016-05-28T00:44:35.198Z,1001.23
2016-05-28T00:45:35.232Z,1001.25
2016-05-28T00:46:35.282Z,1001.23
2016-05-28T00:47:35.316Z,1001.17
2016-05-28T00:48:35.350Z,1001.17
2016-05-28T00:49:35.399Z,1001.17
2016-05-28T00:50:35.433Z,1001.19
2016-05-28T00:51:35.483Z,1001.19
2016-05-28T00:52:35.517Z,1001.25
2016-05-28T00:53:35.566Z,1001.28
2016-05-28T00:54:35.631Z,1001.28
2016-05-28T00:55:35.650Z,1001.25
2016-05-28T00:56:35.683Z,1001.27
2016-05-28T00:57:35.718Z,1001.26
2016-05-28T00:58:35.767Z,1001.28
2016-05-28T00:59:35.816Z,1001.28
2016-05-28T01:00:35.851Z,1001.28
2016-05-28T01:01:35.885Z,1001.27
2016-05-28T01:02:35.933Z,1001.3
2016-05-28T01:03:35.968Z,1001.31
2016-05-28T01:04:36.018Z,1001.35
2016-05-28T01:05:36.067Z,1001.34
2016-05-28T01:06:36.101Z,1001.31
2016-05-28T01:07:36.151Z,1001.3
2016-05-28T01:08:36.169Z,1001.3
2016-05-28T01:09:36.219Z,1001.29
2016-05-28T01:10:36.269Z,1001.25
2016-05-28T01:11:36.301Z,1001.3
2016-05-28T01:12:36.367Z,1001.25
2016-05-28T01:13:36.385Z,1001.27
2016-05-28T01:14:36.420Z,1001.22
2016-05-28T01:15:36.468Z,1001.2
2016-05-28T01:16:36.504Z,1001.22
2016-05-28T01:17:36.537Z,1001.19
2016-05-28T01:18:36.587Z,1001.2
2016-05-28T01:19:36.636Z,1001.19
2016-05-28T01:20:36.670Z,1001.21
2016-05-28T01:21:36.704Z,1001.25
2016-05-28T01:22:36.737Z,1001.22
2016-05-28T01:23:36.819Z,1001.24
2016-05-28T01:24:36.837Z,1001.2
2016-05-28T01:25:36.870Z,1001.2
2016-05-28T01:26:36.905Z,1001.18
2016-05-28T01:27:36.954Z,1001.2
2016-05-28T01:28:37.004Z,1001.18
2016-05-28T01:29:37.023Z,1001.17
2016-05-28T01:30:37.119Z,1001.21
2016-05-28T01:31:37.106Z,1001.19
2016-05-28T01:32:37.155Z,1001.18
2016-05-28T01:33:37.189Z,1001.16
2016-05-28T01:34:37.239Z,1001.15
2016-05-28T01:35:37.272Z,1001.14
2016-05-28T01:36:37.322Z,1001.13
2016-05-28T01:37:37.372Z,1001.16
2016-05-28T01:38:37.390Z,1001.16
2016-05-28T01:39:37.440Z,1001.17
2016-05-28T01:40:37.473Z,1001.16
2016-05-28T01:41:37.524Z,1001.21
2016-05-28T01:42:37.557Z,1001.15
2016-05-28T01:43:37.607Z,1001.12
2016-05-28T01:44:37.657Z,1001.1
2016-05-28T01:45:37.674Z,1001.08
2016-05-28T01:46:37.724Z,1001.03
2016-05-28T01:47:37.759Z,1001
2016-05-28T01:48:37.807Z,1001
2016-05-28T01:49:37.842Z,1001.01
2016-05-28T01:50:37.876Z,1001
2016-05-28T01:51:37.925Z,1001.06
2016-05-28T01:52:37.959Z,1001.06
2016-05-28T01:53:38.008Z,1001.04
2016-05-28T01:54:38.058Z,1001.03
2016-05-28T01:55:38.092Z,1001.08
2016-05-28T01:56:38.126Z,1001.06
2016-05-28T01:57:38.176Z,1001.1
2016-05-28T01:58:38.209Z,1001.16
2016-05-28T01:59:38.244Z,1001.24
2016-05-28T02:00:38.294Z,1001.24
2016-05-28T02:01:38.327Z,1001.31
2016-05-28T02:02:38.392Z,1001.33
2016-05-28T02:03:38.410Z,1001.3
2016-05-28T02:04:38.460Z,1001.23
2016-05-28T02:05:38.494Z,1001.2
2016-05-28T02:06:38.528Z,1001.16
2016-05-28T02:07:38.578Z,1001.16
2016-05-28T02:08:38.611Z,1001.15
2016-05-28T02:09:38.661Z,1001.16
2016-05-28T02:10:38.696Z,1001.09
2016-05-28T02:11:38.730Z,1001.11
2016-05-28T02:12:38.779Z,1001.05
2016-05-28T02:13:38.812Z,1001
2016-05-28T02:14:38.862Z,1000.89
2016-05-28T02:15:38.912Z,1000.83
2016-05-28T02:16:38.930Z,1000.78
2016-05-28T02:17:38.979Z,1000.76
2016-05-28T02:18:39.013Z,1000.75
2016-05-28T02:19:39.062Z,1000.75
2016-05-28T02:20:39.113Z,1000.71
2016-05-28T02:21:39.146Z,1000.73
2016-05-28T02:22:39.180Z,1000.74
2016-05-28T02:23:39.231Z,1000.76
2016-05-28T02:24:39.264Z,1000.74
2016-05-28T02:25:39.298Z,1000.77
2016-05-28T02:26:39.348Z,1000.77
2016-05-28T02:27:39.381Z,1000.8
2016-05-28T02:28:39.431Z,1000.82
2016-05-28T02:29:39.481Z,1000.81
2016-05-28T02:30:39.514Z,1000.81
2016-05-28T02:31:39.548Z,1000.83
2016-05-28T02:32:39.583Z,1000.82
2016-05-28T02:33:39.632Z,1000.85
2016-05-28T02:34:39.681Z,1000.83
2016-05-28T02:35:39.715Z,1000.81
2016-05-28T02:36:39.749Z,1000.76
2016-05-28T02:37:39.800Z,1000.79
2016-05-28T02:38:39.833Z,1000.8
2016-05-28T02:39:39.883Z,1000.79
2016-05-28T02:40:39.916Z,1000.85
2016-05-28T02:41:39.982Z,1000.78
2016-05-28T02:42:40.031Z,1000.82
2016-05-28T02:43:40.050Z,1000.78
2016-05-28T02:44:40.083Z,1000.83
2016-05-28T02:45:40.117Z,1000.85
2016-05-28T02:46:40.168Z,1000.86
2016-05-28T02:47:40.201Z,1000.88
2016-05-28T02:48:40.235Z,1000.84
2016-05-28T02:49:40.284Z,1000.85
2016-05-28T02:50:40.318Z,1000.85
2016-05-28T02:51:40.368Z,1000.86
2016-05-28T02:52:40.434Z,1000.88
2016-05-28T02:53:40.452Z,1000.87
2016-05-28T02:54:40.484Z,1000.88
2016-05-28T02:55:40.550Z,1000.93
2016-05-28T02:56:40.569Z,1000.95
2016-05-28T02:57:40.603Z,1000.97
2016-05-28T02:58:40.652Z,1000.98
2016-05-28T02:59:40.733Z,1000.94
2016-05-28T03:00:40.720Z,1000.96
2016-05-28T03:01:40.769Z,1000.97
2016-05-28T03:02:40.820Z,1000.99
2016-05-28T03:03:40.884Z,1000.95
2016-05-28T03:04:40.887Z,1000.93
2016-05-28T03:05:40.936Z,1000.93
2016-05-28T03:06:40.986Z,1000.89
2016-05-28T03:07:41.019Z,1000.94
2016-05-28T03:08:41.070Z,1000.88
2016-05-28T03:09:41.088Z,1000.86
2016-05-28T03:10:41.153Z,1000.84
2016-05-28T03:11:41.172Z,1000.83
2016-05-28T03:12:41.222Z,1000.81
2016-05-28T03:13:41.255Z,1000.85
2016-05-28T03:14:41.305Z,1000.8
2016-05-28T03:15:41.338Z,1000.83
2016-05-28T03:16:41.388Z,1000.79
2016-05-28T03:17:41.437Z,1000.78
2016-05-28T03:18:41.457Z,1000.79
2016-05-28T03:19:41.662Z,1000.81
2016-05-28T03:20:41.540Z,1000.85
2016-05-28T03:21:41.589Z,1000.85
2016-05-28T03:22:41.639Z,1000.86
2016-05-28T03:23:41.673Z,1000.87
2016-05-28T03:24:41.707Z,1000.89
2016-05-28T03:25:41.740Z,1000.89
2016-05-28T03:26:41.790Z,1000.85
2016-05-28T03:27:41.823Z,1000.83
2016-05-28T03:28:41.889Z,1000.81
2016-05-28T03:29:41.908Z,1000.87
2016-05-28T03:30:41.957Z,1000.86
2016-05-28T03:31:42.006Z,1000.88
2016-05-28T03:32:42.041Z,1000.84
2016-05-28T03:33:42.075Z,1000.86
2016-05-28T03:34:42.124Z,1000.81
2016-05-28T03:35:42.158Z,1000.77
2016-05-28T03:36:42.192Z,1000.81
2016-05-28T03:37:42.241Z,1000.84
2016-05-28T03:38:42.291Z,1000.83
2016-05-28T03:39:42.324Z,1000.87
2016-05-28T03:40:42.358Z,1000.86
2016-05-28T03:41:42.409Z,1000.85
2016-05-28T03:42:42.443Z,1000.85
2016-05-28T03:43:42.476Z,1000.9
2016-05-28T03:44:42.527Z,1000.9
2016-05-28T03:45:42.560Z,1000.94
2016-05-28T03:46:42.610Z,1000.89
2016-05-28T03:47:42.643Z,1000.9
2016-05-28T03:48:42.677Z,1000.91
2016-05-28T03:49:42.727Z,1000.88
2016-05-28T03:50:42.777Z,1000.9
2016-05-28T03:51:42.810Z,1000.85
2016-05-28T03:52:42.876Z,1000.88
2016-05-28T03:53:42.894Z,1000.88
2016-05-28T03:54:42.944Z,1000.9
2016-05-28T03:55:42.978Z,1000.97
2016-05-28T03:56:43.011Z,1001.02
2016-05-28T03:57:43.045Z,1001.1
2016-05-28T03:58:43.095Z,1001.11
2016-05-28T03:59:43.128Z,1001.11
2016-05-28T04:00:43.178Z,1001.08
2016-05-28T04:01:43.228Z,1001.08
2016-05-28T04:02:43.262Z,1001
2016-05-28T04:03:43.296Z,1000.94
2016-05-28T04:04:43.361Z,1000.91
2016-05-28T04:05:43.395Z,1000.83
2016-05-28T04:06:43.414Z,1000.79
2016-05-28T04:07:43.463Z,1000.76
2016-05-28T04:08:43.527Z,1000.76
2016-05-28T04:09:43.547Z,1000.77
2016-05-28T04:10:43.580Z,1000.79
2016-05-28T04:11:43.630Z,1000.79
2016-05-28T04:12:43.664Z,1000.8
2016-05-28T04:13:43.713Z,1000.82
2016-05-28T04:14:43.747Z,1000.76
2016-05-28T04:15:43.797Z,1000.72
2016-05-28T04:16:43.847Z,1000.69
2016-05-28T04:17:43.865Z,1000.66
2016-05-28T04:18:43.915Z,1000.67
2016-05-28T04:19:43.964Z,1000.65
2016-05-28T04:20:43.982Z,1000.61
2016-05-28T04:21:44.032Z,1000.57
2016-05-28T04:22:44.081Z,1000.57
2016-05-28T04:23:44.115Z,1000.57
2016-05-28T04:24:44.149Z,1000.5
2016-05-28T04:25:44.215Z,1000.47
2016-05-28T04:26:44.248Z,1000.44
2016-05-28T04:27:44.282Z,1000.47
2016-05-28T04:28:44.316Z,1000.56
2016-05-28T04:29:44.350Z,1000.51
2016-05-28T04:30:44.415Z,1000.51
2016-05-28T04:31:44.433Z,1000.51
2016-05-28T04:32:44.498Z,1000.52
2016-05-28T04:33:44.517Z,1000.52
2016-05-28T04:34:44.597Z,1000.52
2016-05-28T04:35:44.616Z,1000.56
2016-05-28T04:36:44.650Z,1000.57
2016-05-28T04:37:44.700Z,1000.61
2016-05-28T04:38:44.765Z,1000.63
2016-05-28T04:39:44.767Z,1000.63
2016-05-28T04:40:44.817Z,1000.65
2016-05-28T04:41:44.852Z,1000.65
2016-05-28T04:42:44.885Z,1000.69
2016-05-28T04:43:44.935Z,1000.68
2016-05-28T04:44:44.969Z,1000.7
2016-05-28T04:45:45.003Z,1000.7
2016-05-28T04:46:45.068Z,1000.71
2016-05-28T04:47:45.102Z,1000.73
2016-05-28T04:48:45.136Z,1000.74
2016-05-28T04:49:45.201Z,1000.77
2016-05-28T04:50:45.219Z,1000.72
2016-05-28T04:51:45.254Z,1000.74
2016-05-28T04:52:45.302Z,1000.7
2016-05-28T04:53:45.352Z,1000.72
2016-05-28T04:54:45.387Z,1000.69
2016-05-28T04:55:45.420Z,1000.72
2016-05-28T04:56:45.485Z,1000.76
2016-05-28T04:57:45.503Z,1000.77
2016-05-28T04:58:45.553Z,1000.79
2016-05-28T04:59:45.587Z,1000.79
2016-05-28T05:00:45.637Z,1000.83
2016-05-28T05:01:45.670Z,1000.84
2016-05-28T05:02:45.704Z,1000.83
2016-05-28T05:03:45.754Z,1000.89
2016-05-28T05:04:45.788Z,1000.9
2016-05-28T05:05:45.837Z,1000.89
2016-05-28T05:06:45.886Z,1000.87
2016-05-28T05:07:45.952Z,1000.86
2016-05-28T05:08:45.965Z,1000.89
2016-05-28T05:09:46.039Z,1000.9
2016-05-28T05:10:46.097Z,1000.96
2016-05-28T05:11:46.171Z,1000.94
2016-05-28T05:12:46.245Z,1000.96
2016-05-28T05:13:46.282Z,1000.93
2016-05-28T05:14:46.341Z,1000.92
2016-05-28T05:15:46.383Z,1000.97
2016-05-28T05:16:46.441Z,1001.02
2016-05-28T05:17:46.500Z,1001.01
2016-05-28T05:18:46.541Z,1001.04
2016-05-28T05:19:46.781Z,1001.02
2016-05-28T05:20:46.630Z,1000.99
2016-05-28T05:21:46.668Z,1000.95
2016-05-28T05:22:46.705Z,1000.94
2016-05-28T05:23:46.756Z,1000.96
2016-05-28T05:24:46.792Z,1000.94
2016-05-28T05:25:46.858Z,1000.94
2016-05-28T05:26:46.877Z,1000.95
2016-05-28T05:27:46.928Z,1000.93
2016-05-28T05:28:46.962Z,1000.95
2016-05-28T05:29:47.028Z,1000.94
2016-05-28T05:30:47.047Z,1000.97
2016-05-28T05:31:47.097Z,1000.93
2016-05-28T05:32:47.179Z,1000.97
2016-05-28T05:33:47.197Z,1000.95
2016-05-28T05:34:47.215Z,1000.93
2016-05-28T05:35:47.248Z,1000.91
2016-05-28T05:36:47.299Z,1000.9
2016-05-28T05:37:47.332Z,1000.97
2016-05-28T05:38:47.382Z,1000.94
2016-05-28T05:39:47.431Z,1000.93
2016-05-28T05:40:47.465Z,1000.92
2016-05-28T05:41:47.515Z,1000.92
2016-05-28T05:42:47.549Z,1000.97
2016-05-28T05:43:47.629Z,1000.97
2016-05-28T05:44:47.617Z,1000.99
2016-05-28T05:45:47.667Z,1000.99
2016-05-28T05:46:47.701Z,1001.02
2016-05-28T05:47:47.750Z,1000.99
2016-05-28T05:48:47.783Z,1001
2016-05-28T05:49:47.834Z,1000.99
2016-05-28T05:50:47.914Z,1001.01
2016-05-28T05:51:47.917Z,1000.95
2016-05-28T05:52:47.951Z,1000.95
2016-05-28T05:53:48.000Z,1000.99
2016-05-28T05:54:48.050Z,1001.01
2016-05-28T05:55:48.083Z,1000.98
2016-05-28T05:56:48.134Z,1000.96
2016-05-28T05:57:48.167Z,1000.91
2016-05-28T05:58:48.202Z,1000.92
2016-05-28T05:59:48.236Z,1000.93
2016-05-28T06:00:48.285Z,1000.87
2016-05-28T06:01:48.350Z,1000.87
2016-05-28T06:02:48.368Z,1000.89
2016-05-28T06:03:48.419Z,1000.88
2016-05-28T06:04:48.468Z,1000.88
2016-05-28T06:05:48.502Z,1000.91
2016-05-28T06:06:48.535Z,1000.86
2016-05-28T06:07:48.568Z,1000.91
2016-05-28T06:08:48.618Z,1000.95
2016-05-28T06:09:48.654Z,1000.92
2016-05-28T06:10:48.687Z,1000.95
2016-05-28T06:11:48.736Z,1000.96
2016-05-28T06:12:48.786Z,1001
2016-05-28T06:13:48.820Z,1000.95
2016-05-28T06:14:48.870Z,1001
2016-05-28T06:15:48.903Z,1001.01
2016-05-28T06:16:48.953Z,1001.02
2016-05-28T06:17:48.987Z,1000.97
2016-05-28T06:18:49.037Z,1000.96
2016-05-28T06:19:49.101Z,1000.96
2016-05-28T06:20:49.120Z,1000.88
2016-05-28T06:21:49.154Z,1000.91
2016-05-28T06:22:49.188Z,1000.92
2016-05-28T06:23:49.253Z,1000.92
2016-05-28T06:24:49.272Z,1000.91
2016-05-28T06:25:49.321Z,1000.93
2016-05-28T06:26:49.402Z,1000.88
2016-05-28T06:27:49.405Z,1000.88
2016-05-28T06:28:49.454Z,1000.92
2016-05-28T06:29:49.488Z,1000.92
2016-05-28T06:30:49.538Z,1000.88
2016-05-28T06:31:49.571Z,1000.92
2016-05-28T06:32:49.621Z,1000.92
2016-05-28T06:33:49.655Z,1000.95
2016-05-28T06:34:50.627Z,1000.95
2016-05-28T06:35:49.738Z,1000.93
2016-05-28T06:36:49.772Z,1000.92
2016-05-28T06:37:49.837Z,1000.88
2016-05-28T06:38:49.887Z,1000.89
2016-05-28T06:39:49.921Z,1000.9
2016-05-28T06:40:49.955Z,1000.89
2016-05-28T06:41:50.004Z,1000.86
2016-05-28T06:42:50.038Z,1000.9
2016-05-28T06:43:50.088Z,1000.9
2016-05-28T06:44:50.137Z,1000.9
2016-05-28T06:45:50.171Z,1000.92
2016-05-28T06:46:50.205Z,1000.9
2016-05-28T06:47:50.256Z,1000.86
2016-05-28T06:48:50.289Z,1000.85
2016-05-28T06:49:50.339Z,1000.82
2016-05-28T06:50:50.372Z,1000.83
2016-05-28T06:51:50.453Z,1000.76
2016-05-28T06:52:50.456Z,1000.73
2016-05-28T06:53:50.505Z,1000.74
2016-05-28T06:54:50.556Z,1000.71
2016-05-28T06:55:50.589Z,1000.72
2016-05-28T06:56:50.638Z,1000.76
2016-05-28T06:57:50.689Z,1000.75
2016-05-28T06:58:50.754Z,1000.74
2016-05-28T06:59:50.756Z,1000.74
2016-05-28T07:00:50.805Z,1000.79
2016-05-28T07:01:50.839Z,1000.79
2016-05-28T07:02:50.889Z,1000.81
2016-05-28T07:03:50.923Z,1000.78
2016-05-28T07:04:51.004Z,1000.78
2016-05-28T07:05:51.022Z,1000.82
2016-05-28T07:06:51.071Z,1000.79
2016-05-28T07:07:51.105Z,1000.75
2016-05-28T07:08:51.140Z,1000.77
2016-05-28T07:09:51.236Z,1000.73
2016-05-28T07:10:51.238Z,1000.74
2016-05-28T07:11:51.273Z,1000.77
2016-05-28T07:12:51.322Z,1000.76
2016-05-28T07:13:51.356Z,1000.75
2016-05-28T07:14:51.406Z,1000.78
2016-05-28T07:15:51.455Z,1000.78
2016-05-28T07:16:51.537Z,1000.79
2016-05-28T07:17:51.539Z,1000.78
2016-05-28T07:18:51.573Z,1000.73
2016-05-28T07:19:51.622Z,1000.74
2016-05-28T07:20:51.672Z,1000.74
2016-05-28T07:21:51.705Z,1000.75
2016-05-28T07:22:51.756Z,1000.74
2016-05-28T07:23:51.836Z,1000.72
2016-05-28T07:24:51.839Z,1000.77
2016-05-28T07:25:51.889Z,1000.76
2016-05-28T07:26:51.938Z,1000.77
2016-05-28T07:27:51.988Z,1000.8
2016-05-28T07:28:52.005Z,1000.7
2016-05-28T07:29:52.134Z,1000.67
2016-05-28T07:30:52.105Z,1000.66
2016-05-28T07:31:52.154Z,1000.69
2016-05-28T07:32:52.173Z,1000.6
2016-05-28T07:33:52.223Z,1000.62
2016-05-28T07:34:52.803Z,1000.6
2016-05-28T07:35:52.305Z,1000.63
2016-05-28T07:36:52.355Z,1000.6
2016-05-28T07:37:52.405Z,1000.6
2016-05-28T07:38:52.438Z,1000.63
2016-05-28T07:39:52.488Z,1000.62
2016-05-28T07:40:52.523Z,1000.64
2016-05-28T07:41:52.572Z,1000.66
2016-05-28T07:42:52.637Z,1000.62
2016-05-28T07:43:52.671Z,1000.59
2016-05-28T07:44:52.705Z,1000.59
2016-05-28T07:45:52.739Z,1000.62
2016-05-28T07:46:52.789Z,1000.61
2016-05-28T07:47:52.837Z,1000.62
2016-05-28T07:48:52.872Z,1000.66
2016-05-28T07:49:52.953Z,1000.64
2016-05-28T07:50:52.971Z,1000.64
2016-05-28T07:51:53.005Z,1000.67
2016-05-28T07:52:53.039Z,1000.63
2016-05-28T07:53:53.089Z,1000.66
2016-05-28T07:54:53.138Z,1000.64
2016-05-28T07:55:53.172Z,1000.67
2016-05-28T07:56:53.237Z,1000.67
2016-05-28T07:57:53.272Z,1000.69
2016-05-28T07:58:53.322Z,1000.72
2016-05-28T07:59:53.339Z,1000.71
2016-05-28T08:00:53.388Z,1000.75
2016-05-28T08:01:53.439Z,1000.8
2016-05-28T08:02:53.472Z,1000.77
2016-05-28T08:03:53.522Z,1000.81
2016-05-28T08:04:54.290Z,1000.78
2016-05-28T08:05:53.605Z,1000.79
2016-05-28T08:06:53.655Z,1000.8
2016-05-28T08:07:53.688Z,1000.82
2016-05-28T08:08:53.738Z,1000.83
2016-05-28T08:09:53.788Z,1000.76
2016-05-28T08:10:53.822Z,1000.82
2016-05-28T08:11:53.902Z,1000.76
2016-05-28T08:12:53.905Z,1000.76
2016-05-28T08:13:53.955Z,1000.75
2016-05-28T08:14:53.989Z,1000.74
2016-05-28T08:15:54.054Z,1000.74
2016-05-28T08:16:54.088Z,1000.74
2016-05-28T08:17:54.122Z,1000.76
2016-05-28T08:18:54.156Z,1000.77
2016-05-28T08:19:54.206Z,1000.76
2016-05-28T08:20:54.255Z,1000.77
2016-05-28T08:21:54.290Z,1000.8
2016-05-28T08:22:54.339Z,1000.79
2016-05-28T08:23:54.403Z,1000.76
2016-05-28T08:24:54.422Z,1000.76
2016-05-28T08:25:54.456Z,1000.82
2016-05-28T08:26:54.505Z,1000.75
2016-05-28T08:27:54.556Z,1000.74
2016-05-28T08:28:54.589Z,1000.75
2016-05-28T08:29:54.639Z,1000.7
2016-05-28T08:30:54.673Z,1000.7
2016-05-28T08:31:54.722Z,1000.68
2016-05-28T08:32:54.772Z,1000.62
2016-05-28T08:33:54.805Z,1000.62
2016-05-28T08:34:54.886Z,1000.6
2016-05-28T08:35:54.889Z,1000.56
2016-05-28T08:36:54.938Z,1000.57
2016-05-28T08:37:54.988Z,1000.56
2016-05-28T08:38:56.710Z,1000.53
2016-05-28T08:39:55.072Z,1000.51
2016-05-28T08:40:55.122Z,1000.47
2016-05-28T08:41:55.187Z,1000.51
2016-05-28T08:42:55.205Z,1000.44
2016-05-28T08:43:55.254Z,1000.46
2016-05-28T08:44:55.273Z,1000.52
2016-05-28T08:45:55.323Z,1000.54
2016-05-28T08:46:55.372Z,1000.52
2016-05-28T08:47:55.406Z,1000.54
2016-05-28T08:48:55.471Z,1000.48
2016-05-28T08:49:55.505Z,1000.45
2016-05-28T08:50:55.540Z,1000.4
2016-05-28T08:51:55.589Z,1000.36
2016-05-28T08:52:55.622Z,1000.37
2016-05-28T08:53:55.673Z,1000.38
2016-05-28T08:54:55.722Z,1000.34
2016-05-28T08:55:55.756Z,1000.36
2016-05-28T08:56:55.806Z,1000.34
2016-05-28T08:57:55.839Z,1000.3
2016-05-28T08:58:55.888Z,1000.3
2016-05-28T08:59:55.938Z,1000.29
2016-05-28T09:00:56.019Z,1000.25
2016-05-28T09:01:56.053Z,1000.25
2016-05-28T09:02:56.071Z,1000.3
2016-05-28T09:03:56.106Z,1000.3
2016-05-28T09:04:56.170Z,1000.28
2016-05-28T09:05:56.205Z,1000.25
2016-05-28T09:06:56.238Z,1000.27
2016-05-28T09:07:56.288Z,1000.25
2016-05-28T09:08:56.321Z,1000.23
2016-05-28T09:09:56.371Z,1000.23
2016-05-28T09:10:56.421Z,1000.22
2016-05-28T09:11:56.471Z,1000.25
2016-05-28T09:12:56.520Z,1000.28
2016-05-28T09:13:56.554Z,1000.33
2016-05-28T09:14:56.604Z,1000.35
2016-05-28T09:15:56.654Z,1000.35
2016-05-28T09:16:56.702Z,1000.36
2016-05-28T09:17:56.737Z,1000.31
2016-05-28T09:18:56.818Z,1000.31
2016-05-28T09:19:56.820Z,1000.28
2016-05-28T09:20:56.870Z,1000.29
2016-05-28T09:21:56.919Z,1000.28
2016-05-28T09:22:56.969Z,1000.27
2016-05-28T09:23:57.018Z,1000.27
2016-05-28T09:24:57.146Z,1000.26
2016-05-28T09:25:57.102Z,1000.26
2016-05-28T09:26:57.152Z,1000.25
2016-05-28T09:27:57.201Z,1000.26
2016-05-28T09:28:57.234Z,1000.23
2016-05-28T09:29:57.300Z,1000.16
2016-05-28T09:30:57.334Z,1000.18
2016-05-28T09:31:57.384Z,1000.16
2016-05-28T09:32:57.434Z,1000.17
2016-05-28T09:33:57.466Z,1000.18
2016-05-28T09:34:57.516Z,1000.17
2016-05-28T09:35:57.582Z,1000.19
2016-05-28T09:36:57.616Z,1000.22
2016-05-28T09:37:57.680Z,1000.17
2016-05-28T09:38:57.730Z,1000.24
2016-05-28T09:39:57.749Z,1000.2
2016-05-28T09:40:57.813Z,1000.22
2016-05-28T09:41:57.833Z,1000.19
2016-05-28T09:42:57.897Z,1000.15
2016-05-28T09:43:57.947Z,1000.15
2016-05-28T09:44:57.981Z,1000.16
2016-05-28T09:45:58.030Z,1000.13
2016-05-28T09:46:58.080Z,1000.1
2016-05-28T09:47:58.130Z,1000.13
2016-05-28T09:48:58.164Z,1000.12
2016-05-28T09:49:58.229Z,1000.12
2016-05-28T09:50:58.262Z,1000.13
2016-05-28T09:51:58.312Z,1000.11
2016-05-28T09:52:58.346Z,1000.09
2016-05-28T09:53:58.395Z,1000.07
2016-05-28T09:54:58.445Z,1000.07
2016-05-28T09:55:58.557Z,1000.05
2016-05-28T09:56:58.545Z,1000.04
2016-05-28T09:57:58.609Z,1000.05
2016-05-28T09:58:58.659Z,1000.01
2016-05-28T09:59:58.678Z,1000.02
2016-05-28T10:00:58.728Z,1000.02
2016-05-28T10:01:58.761Z,1000.02
2016-05-28T10:02:58.825Z,1000
2016-05-28T10:03:58.860Z,1000.01
2016-05-28T10:04:59.551Z,1000.01
2016-05-28T10:05:58.959Z,1000.01
2016-05-28T10:06:59.008Z,1000.03
2016-05-28T10:07:59.044Z,1000.08
2016-05-28T10:08:59.092Z,1000.06
2016-05-28T10:09:59.142Z,1000.06
2016-05-28T10:10:59.192Z,1000.02
2016-05-28T10:11:59.242Z,1000.05
2016-05-28T10:12:59.291Z,1000.07
2016-05-28T10:13:59.340Z,1000.11
2016-05-28T10:14:59.374Z,1000.06
2016-05-28T10:15:59.424Z,1000.05
2016-05-28T10:16:59.505Z,1000.03
2016-05-28T10:17:59.524Z,1000.05
2016-05-28T10:18:59.573Z,1000.07
2016-05-28T10:19:59.654Z,1000.07
2016-05-28T10:20:59.671Z,1000.06
2016-05-28T10:21:59.706Z,1000.13
2016-05-28T10:22:59.755Z,1000.1
2016-05-28T10:23:59.837Z,1000.28
2016-05-28T10:24:59.854Z,1000.42
2016-05-28T10:25:59.919Z,1000.51
2016-05-28T10:26:59.954Z,1000.43
2016-05-28T10:28:00.003Z,1000.02
2016-05-28T10:29:00.037Z,999.99
2016-05-28T10:30:00.102Z,1000.03
2016-05-28T10:31:00.136Z,1000.2
2016-05-28T10:32:00.201Z,1000.51
2016-05-28T10:33:00.236Z,1000.02
2016-05-28T10:34:00.284Z,999.92
2016-05-28T10:35:01.084Z,999.94
2016-05-28T10:36:00.384Z,999.95
2016-05-28T10:37:00.433Z,1000.29
2016-05-28T10:38:00.483Z,1000.34
2016-05-28T10:39:00.532Z,1000.47
2016-05-28T10:40:00.582Z,1000.39
2016-05-28T10:41:00.632Z,1000.37
2016-05-28T10:42:00.681Z,1000.53
2016-05-28T10:43:00.730Z,1000.41
2016-05-28T10:44:00.780Z,1000.39
2016-05-28T10:45:00.830Z,1000.38
2016-05-28T10:46:00.879Z,1000.35
2016-05-28T10:47:00.960Z,1000.35
2016-05-28T10:48:00.994Z,1000.44
2016-05-28T10:49:01.059Z,999.98
2016-05-28T10:50:01.156Z,1000.33
2016-05-28T10:51:01.143Z,999.99
2016-05-28T10:52:01.193Z,999.88
2016-05-28T10:53:01.257Z,1000.01
2016-05-28T10:54:01.323Z,1000.37
2016-05-28T10:55:02.045Z,1000.41
2016-05-28T10:56:01.423Z,1000.33
2016-05-28T10:57:01.471Z,999.93
2016-05-28T10:58:01.537Z,999.93
2016-05-28T10:59:01.602Z,1000.22
2016-05-28T11:00:01.636Z,999.91
2016-05-28T11:01:01.701Z,1000.34
2016-05-28T11:02:01.750Z,1000.3
2016-05-28T11:03:01.801Z,1000.32
2016-05-28T11:04:01.865Z,1000.26
2016-05-28T11:05:01.931Z,1000.22
2016-05-28T11:06:01.995Z,1000.19
2016-05-28T11:07:02.030Z,1000.26
2016-05-28T11:08:02.095Z,1000.26
2016-05-28T11:09:02.144Z,999.84
2016-05-28T11:10:02.210Z,1000.14
2016-05-28T11:11:02.275Z,1000.27
2016-05-28T11:12:02.324Z,1000.21
2016-05-28T11:13:02.374Z,999.8
2016-05-28T11:14:02.439Z,999.73
2016-05-28T11:15:02.489Z,999.7
2016-05-28T11:16:02.569Z,999.7
2016-05-28T11:17:02.604Z,999.71
2016-05-28T11:18:02.669Z,999.7
2016-05-28T11:19:02.719Z,999.86
2016-05-28T11:20:02.783Z,999.63
2016-05-28T11:21:02.833Z,1000.12
2016-05-28T11:22:02.899Z,999.73
2016-05-28T11:23:02.964Z,999.69
2016-05-28T11:24:02.997Z,999.61
2016-05-28T11:25:03.062Z,999.6
2016-05-28T11:26:03.112Z,999.61
2016-05-28T11:27:03.162Z,999.58
2016-05-28T11:28:03.211Z,999.63
2016-05-28T11:29:03.276Z,999.77
2016-05-28T11:30:03.326Z,1000.2
2016-05-28T11:31:03.392Z,999.74
2016-05-28T11:32:03.425Z,1000.34
2016-05-28T11:33:03.490Z,1000.13
2016-05-28T11:34:03.540Z,1000.18
2016-05-28T11:35:04.043Z,1000.35
2016-05-28T11:36:03.655Z,1000.42
2016-05-28T11:37:03.735Z,1000.37
2016-05-28T11:38:03.769Z,1000.24
2016-05-28T11:39:03.834Z,1000.18
2016-05-28T11:40:03.884Z,1000.19
2016-05-28T11:41:03.949Z,1000.16
2016-05-28T11:42:04.000Z,1000.13
2016-05-28T11:43:04.064Z,1000.16
2016-05-28T11:44:04.129Z,1000.14
2016-05-28T11:45:04.179Z,1000.04
2016-05-28T11:46:04.244Z,1000.12
2016-05-28T11:47:04.310Z,999.93
2016-05-28T11:48:04.359Z,999.52
2016-05-28T11:49:04.424Z,999.43
2016-05-28T11:50:04.504Z,999.42
2016-05-28T11:51:04.555Z,999.4
2016-05-28T11:52:04.619Z,999.62
2016-05-28T11:53:04.685Z,999.94
2016-05-28T11:54:04.765Z,1000.05
2016-05-28T11:55:04.799Z,1000.11
2016-05-28T11:56:04.849Z,1000.07
2016-05-28T11:57:04.915Z,1000.09
2016-05-28T11:58:04.979Z,1000.05
2016-05-28T11:59:05.029Z,1000.11
2016-05-28T12:00:05.094Z,1000.08
2016-05-28T12:01:05.160Z,999.96
2016-05-28T12:02:05.225Z,1000.04
2016-05-28T12:03:05.274Z,1000.11
2016-05-28T12:04:05.370Z,999.93
2016-05-28T12:05:05.468Z,999.66
2016-05-28T12:06:05.470Z,999.89
2016-05-28T12:07:05.534Z,1000.02
2016-05-28T12:08:05.585Z,999.27
2016-05-28T12:09:05.649Z,999.21
2016-05-28T12:10:05.715Z,999.17